sensor_id;sensor_type;location;lat;lon;timestamp;P1;durP1;ratioP1;P2;durP2;ratioP2
59788;SDS011;47353;51.614;5.530;2023-02-20T00:01:45;21.77;;;11.75;;
59788;SDS011;47353;51.614;5.530;2023-02-20T00:04:14;19.23;;;10.20;;
59788;SDS011;47353;51.614;5.530;2023-02-20T00:06:40;18.70;;;10.85;;
59788;SDS011;47353;51.614;5.530;2023-02-20T00:09:05;18.33;;;10.23;;
59788;SDS011;47353;51.614;5.530;2023-02-20T00:11:30;22.17;;;11.73;;
59788;SDS011;47353;51.614;5.530;2023-02-20T00:13:56;19.50;;;11.10;;
59788;SDS011;47353;51.614;5.530;2023-02-20T00:16:21;19.55;;;11.15;;
59788;SDS011;47353;51.614;5.530;2023-02-20T00:18:47;16.50;;;9.70;;
59788;SDS011;47353;51.614;5.530;2023-02-20T00:21:12;15.20;;;9.38;;
59788;SDS011;47353;51.614;5.530;2023-02-20T00:23:37;20.85;;;10.77;;
59788;SDS011;47353;51.614;5.530;2023-02-20T00:26:03;19.10;;;11.15;;
59788;SDS011;47353;51.614;5.530;2023-02-20T00:28:33;18.60;;;10.70;;
59788;SDS011;47353;51.614;5.530;2023-02-20T00:30:58;18.27;;;9.80;;
59788;SDS011;47353;51.614;5.530;2023-02-20T00:33:23;18.25;;;10.48;;
59788;SDS011;47353;51.614;5.530;2023-02-20T00:35:49;18.13;;;11.23;;
59788;SDS011;47353;51.614;5.530;2023-02-20T00:38:14;18.48;;;10.98;;
59788;SDS011;47353;51.614;5.530;2023-02-20T00:40:40;21.90;;;12.15;;
59788;SDS011;47353;51.614;5.530;2023-02-20T00:43:06;21.65;;;11.93;;
59788;SDS011;47353;51.614;5.530;2023-02-20T00:45:32;22.63;;;12.00;;
59788;SDS011;47353;51.614;5.530;2023-02-20T00:47:57;23.52;;;12.52;;
59788;SDS011;47353;51.614;5.530;2023-02-20T00:50:22;21.25;;;12.57;;
59788;SDS011;47353;51.614;5.530;2023-02-20T00:52:48;24.27;;;13.05;;
59788;SDS011;47353;51.614;5.530;2023-02-20T00:55:13;23.67;;;13.00;;
59788;SDS011;47353;51.614;5.530;2023-02-20T00:57:39;21.67;;;12.80;;
59788;SDS011;47353;51.614;5.530;2023-02-20T01:00:07;24.45;;;12.73;;
59788;SDS011;47353;51.614;5.530;2023-02-20T01:02:36;22.23;;;12.63;;
59788;SDS011;47353;51.614;5.530;2023-02-20T01:05:02;23.10;;;12.50;;
59788;SDS011;47353;51.614;5.530;2023-02-20T01:07:28;25.63;;;13.18;;
59788;SDS011;47353;51.614;5.530;2023-02-20T01:09:53;24.25;;;13.32;;
59788;SDS011;47353;51.614;5.530;2023-02-20T01:12:18;22.50;;;13.10;;
59788;SDS011;47353;51.614;5.530;2023-02-20T01:14:44;25.23;;;13.25;;
59788;SDS011;47353;51.614;5.530;2023-02-20T01:17:10;23.40;;;13.80;;
59788;SDS011;47353;51.614;5.530;2023-02-20T01:19:36;22.52;;;12.57;;
59788;SDS011;47353;51.614;5.530;2023-02-20T01:22:02;23.15;;;12.85;;
59788;SDS011;47353;51.614;5.530;2023-02-20T01:24:30;21.80;;;12.48;;
59788;SDS011;47353;51.614;5.530;2023-02-20T01:26:55;21.63;;;12.68;;
59788;SDS011;47353;51.614;5.530;2023-02-20T01:29:21;23.88;;;12.98;;
59788;SDS011;47353;51.614;5.530;2023-02-20T01:31:47;22.90;;;13.77;;
59788;SDS011;47353;51.614;5.530;2023-02-20T01:34:14;24.00;;;13.68;;
59788;SDS011;47353;51.614;5.530;2023-02-20T01:36:47;25.10;;;14.02;;
59788;SDS011;47353;51.614;5.530;2023-02-20T01:39:20;28.70;;;13.77;;
59788;SDS011;47353;51.614;5.530;2023-02-20T01:41:51;26.65;;;14.23;;
59788;SDS011;47353;51.614;5.530;2023-02-20T01:44:21;26.05;;;14.18;;
59788;SDS011;47353;51.614;5.530;2023-02-20T01:46:54;29.17;;;14.15;;
59788;SDS011;47353;51.614;5.530;2023-02-20T01:50:06;27.67;;;13.30;;
59788;SDS011;47353;51.614;5.530;2023-02-20T01:52:19;27.48;;;14.02;;
59788;SDS011;47353;51.614;5.530;2023-02-20T01:55:30;34.08;;;15.25;;
59788;SDS011;47353;51.614;5.530;2023-02-20T01:57:51;31.45;;;15.25;;
59788;SDS011;47353;51.614;5.530;2023-02-20T02:00:21;26.48;;;13.77;;
59788;SDS011;47353;51.614;5.530;2023-02-20T02:02:56;25.65;;;13.95;;
59788;SDS011;47353;51.614;5.530;2023-02-20T02:05:27;31.70;;;15.48;;
59788;SDS011;47353;51.614;5.530;2023-02-20T02:07:54;27.55;;;14.38;;
59788;SDS011;47353;51.614;5.530;2023-02-20T02:10:25;29.95;;;15.52;;
59788;SDS011;47353;51.614;5.530;2023-02-20T02:12:54;27.80;;;14.95;;
59788;SDS011;47353;51.614;5.530;2023-02-20T02:15:21;28.60;;;13.65;;
59788;SDS011;47353;51.614;5.530;2023-02-20T02:23:39;28.65;;;14.63;;
59788;SDS011;47353;51.614;5.530;2023-02-20T02:32:19;29.27;;;14.63;;
59788;SDS011;47353;51.614;5.530;2023-02-20T02:37:26;29.42;;;14.02;;
59788;SDS011;47353;51.614;5.530;2023-02-20T02:42:45;34.00;;;16.60;;
59788;SDS011;47353;51.614;5.530;2023-02-20T02:48:31;35.28;;;19.15;;
59788;SDS011;47353;51.614;5.530;2023-02-20T02:51:05;30.02;;;16.02;;
59788;SDS011;47353;51.614;5.530;2023-02-20T02:53:36;39.42;;;19.67;;
59788;SDS011;47353;51.614;5.530;2023-02-20T02:56:01;39.22;;;22.05;;
59788;SDS011;47353;51.614;5.530;2023-02-20T02:58:45;43.00;;;21.67;;
59788;SDS011;47353;51.614;5.530;2023-02-20T03:01:12;43.95;;;22.08;;
59788;SDS011;47353;51.614;5.530;2023-02-20T03:03:40;37.35;;;21.17;;
59788;SDS011;47353;51.614;5.530;2023-02-20T03:06:13;40.60;;;19.95;;
59788;SDS011;47353;51.614;5.530;2023-02-20T03:08:59;42.78;;;19.85;;
59788;SDS011;47353;51.614;5.530;2023-02-20T03:11:34;41.28;;;22.40;;
59788;SDS011;47353;51.614;5.530;2023-02-20T03:14:13;45.45;;;23.77;;
59788;SDS011;47353;51.614;5.530;2023-02-20T03:17:23;47.67;;;23.50;;
59788;SDS011;47353;51.614;5.530;2023-02-20T03:19:54;50.53;;;25.25;;
59788;SDS011;47353;51.614;5.530;2023-02-20T03:22:24;48.50;;;25.83;;
59788;SDS011;47353;51.614;5.530;2023-02-20T03:25:15;50.67;;;25.25;;
59788;SDS011;47353;51.614;5.530;2023-02-20T03:30:30;50.53;;;26.27;;
59788;SDS011;47353;51.614;5.530;2023-02-20T03:32:58;49.90;;;25.25;;
59788;SDS011;47353;51.614;5.530;2023-02-20T03:35:47;55.58;;;25.77;;
59788;SDS011;47353;51.614;5.530;2023-02-20T03:38:35;54.95;;;27.02;;
59788;SDS011;47353;51.614;5.530;2023-02-20T03:41:21;58.33;;;26.38;;
59788;SDS011;47353;51.614;5.530;2023-02-20T03:44:08;56.65;;;27.52;;
59788;SDS011;47353;51.614;5.530;2023-02-20T03:46:35;51.13;;;26.20;;
59788;SDS011;47353;51.614;5.530;2023-02-20T03:49:07;50.85;;;26.23;;
59788;SDS011;47353;51.614;5.530;2023-02-20T03:51:41;49.00;;;26.08;;
59788;SDS011;47353;51.614;5.530;2023-02-20T03:54:23;53.13;;;25.15;;
59788;SDS011;47353;51.614;5.530;2023-02-20T03:56:49;50.75;;;26.77;;
59788;SDS011;47353;51.614;5.530;2023-02-20T04:01:49;54.17;;;26.77;;
59788;SDS011;47353;51.614;5.530;2023-02-20T04:04:29;55.10;;;26.85;;
59788;SDS011;47353;51.614;5.530;2023-02-20T04:07:00;52.33;;;24.52;;
59788;SDS011;47353;51.614;5.530;2023-02-20T04:09:32;53.85;;;27.58;;
59788;SDS011;47353;51.614;5.530;2023-02-20T04:12:03;51.30;;;25.05;;
59788;SDS011;47353;51.614;5.530;2023-02-20T04:14:32;52.03;;;25.40;;
59788;SDS011;47353;51.614;5.530;2023-02-20T04:17:01;51.58;;;25.83;;
59788;SDS011;47353;51.614;5.530;2023-02-20T04:19:32;44.85;;;22.13;;
59788;SDS011;47353;51.614;5.530;2023-02-20T04:21:58;49.85;;;23.92;;
59788;SDS011;47353;51.614;5.530;2023-02-20T04:24:29;50.95;;;24.45;;
59788;SDS011;47353;51.614;5.530;2023-02-20T04:26:59;55.67;;;25.92;;
59788;SDS011;47353;51.614;5.530;2023-02-20T04:29:24;50.05;;;23.13;;
59788;SDS011;47353;51.614;5.530;2023-02-20T04:31:50;50.05;;;23.95;;
59788;SDS011;47353;51.614;5.530;2023-02-20T04:34:16;41.55;;;22.35;;
59788;SDS011;47353;51.614;5.530;2023-02-20T04:36:41;47.38;;;22.35;;
59788;SDS011;47353;51.614;5.530;2023-02-20T04:39:07;46.95;;;22.73;;
59788;SDS011;47353;51.614;5.530;2023-02-20T04:41:32;48.55;;;21.83;;
59788;SDS011;47353;51.614;5.530;2023-02-20T04:43:57;44.92;;;21.98;;
59788;SDS011;47353;51.614;5.530;2023-02-20T04:46:46;48.13;;;22.73;;
59788;SDS011;47353;51.614;5.530;2023-02-20T04:49:11;45.75;;;21.48;;
59788;SDS011;47353;51.614;5.530;2023-02-20T04:51:37;43.13;;;22.45;;
59788;SDS011;47353;51.614;5.530;2023-02-20T04:54:02;46.65;;;23.85;;
59788;SDS011;47353;51.614;5.530;2023-02-20T04:56:27;49.03;;;23.60;;
59788;SDS011;47353;51.614;5.530;2023-02-20T04:58:53;53.20;;;23.67;;
59788;SDS011;47353;51.614;5.530;2023-02-20T05:01:18;50.15;;;24.55;;
59788;SDS011;47353;51.614;5.530;2023-02-20T05:03:43;46.00;;;23.80;;
59788;SDS011;47353;51.614;5.530;2023-02-20T05:06:09;52.45;;;24.35;;
59788;SDS011;47353;51.614;5.530;2023-02-20T05:08:34;45.47;;;22.15;;
59788;SDS011;47353;51.614;5.530;2023-02-20T05:10:59;48.08;;;25.25;;
59788;SDS011;47353;51.614;5.530;2023-02-20T05:13:25;53.55;;;24.85;;
59788;SDS011;47353;51.614;5.530;2023-02-20T05:15:50;47.35;;;24.08;;
59788;SDS011;47353;51.614;5.530;2023-02-20T05:18:23;46.50;;;23.65;;
59788;SDS011;47353;51.614;5.530;2023-02-20T05:20:52;49.90;;;25.08;;
59788;SDS011;47353;51.614;5.530;2023-02-20T05:23:36;52.72;;;24.60;;
59788;SDS011;47353;51.614;5.530;2023-02-20T05:26:01;50.00;;;26.58;;
59788;SDS011;47353;51.614;5.530;2023-02-20T05:28:26;48.65;;;22.80;;
59788;SDS011;47353;51.614;5.530;2023-02-20T05:30:52;55.85;;;24.85;;
59788;SDS011;47353;51.614;5.530;2023-02-20T05:33:17;54.45;;;24.30;;
59788;SDS011;47353;51.614;5.530;2023-02-20T05:35:43;51.17;;;24.50;;
59788;SDS011;47353;51.614;5.530;2023-02-20T05:38:08;51.35;;;24.45;;
59788;SDS011;47353;51.614;5.530;2023-02-20T05:40:34;51.33;;;24.92;;
59788;SDS011;47353;51.614;5.530;2023-02-20T05:42:59;48.55;;;26.25;;
59788;SDS011;47353;51.614;5.530;2023-02-20T05:45:25;44.25;;;22.83;;
59788;SDS011;47353;51.614;5.530;2023-02-20T05:47:50;50.60;;;27.10;;
59788;SDS011;47353;51.614;5.530;2023-02-20T05:50:15;44.72;;;24.17;;
59788;SDS011;47353;51.614;5.530;2023-02-20T05:52:41;50.75;;;26.08;;
59788;SDS011;47353;51.614;5.530;2023-02-20T05:55:07;54.47;;;26.70;;
59788;SDS011;47353;51.614;5.530;2023-02-20T05:57:33;46.67;;;24.63;;
59788;SDS011;47353;51.614;5.530;2023-02-20T05:59:58;51.17;;;27.10;;
59788;SDS011;47353;51.614;5.530;2023-02-20T06:02:23;50.17;;;24.67;;
59788;SDS011;47353;51.614;5.530;2023-02-20T06:04:49;48.08;;;24.60;;
59788;SDS011;47353;51.614;5.530;2023-02-20T06:07:14;47.75;;;24.08;;
59788;SDS011;47353;51.614;5.530;2023-02-20T06:09:40;51.30;;;25.02;;
59788;SDS011;47353;51.614;5.530;2023-02-20T06:12:07;46.63;;;26.23;;
59788;SDS011;47353;51.614;5.530;2023-02-20T06:14:32;53.75;;;24.67;;
59788;SDS011;47353;51.614;5.530;2023-02-20T06:16:58;40.40;;;21.50;;
59788;SDS011;47353;51.614;5.530;2023-02-20T06:19:23;46.08;;;22.70;;
59788;SDS011;47353;51.614;5.530;2023-02-20T06:21:50;47.00;;;24.45;;
59788;SDS011;47353;51.614;5.530;2023-02-20T06:24:17;45.28;;;22.65;;
59788;SDS011;47353;51.614;5.530;2023-02-20T06:26:43;46.97;;;24.00;;
59788;SDS011;47353;51.614;5.530;2023-02-20T06:29:09;41.55;;;22.80;;
59788;SDS011;47353;51.614;5.530;2023-02-20T06:31:34;52.08;;;24.17;;
59788;SDS011;47353;51.614;5.530;2023-02-20T06:34:00;45.47;;;24.75;;
59788;SDS011;47353;51.614;5.530;2023-02-20T06:36:27;50.00;;;24.30;;
59788;SDS011;47353;51.614;5.530;2023-02-20T06:38:58;44.85;;;22.65;;
59788;SDS011;47353;51.614;5.530;2023-02-20T06:41:24;47.72;;;26.25;;
59788;SDS011;47353;51.614;5.530;2023-02-20T06:43:50;45.15;;;23.77;;
59788;SDS011;47353;51.614;5.530;2023-02-20T06:46:15;52.65;;;27.70;;
59788;SDS011;47353;51.614;5.530;2023-02-20T06:48:44;48.63;;;26.00;;
59788;SDS011;47353;51.614;5.530;2023-02-20T06:51:11;50.97;;;25.98;;
59788;SDS011;47353;51.614;5.530;2023-02-20T06:53:40;53.88;;;27.35;;
59788;SDS011;47353;51.614;5.530;2023-02-20T06:56:07;51.35;;;27.48;;
59788;SDS011;47353;51.614;5.530;2023-02-20T06:58:38;49.30;;;26.67;;
59788;SDS011;47353;51.614;5.530;2023-02-20T07:01:04;50.67;;;26.95;;
59788;SDS011;47353;51.614;5.530;2023-02-20T07:03:29;47.47;;;24.33;;
59788;SDS011;47353;51.614;5.530;2023-02-20T07:05:54;48.55;;;25.23;;
59788;SDS011;47353;51.614;5.530;2023-02-20T07:08:20;56.97;;;29.35;;
59788;SDS011;47353;51.614;5.530;2023-02-20T07:10:45;51.33;;;26.05;;
59788;SDS011;47353;51.614;5.530;2023-02-20T07:13:10;49.03;;;25.65;;
59788;SDS011;47353;51.614;5.530;2023-02-20T07:15:36;53.15;;;25.10;;
59788;SDS011;47353;51.614;5.530;2023-02-20T07:18:01;46.63;;;24.30;;
59788;SDS011;47353;51.614;5.530;2023-02-20T07:20:27;53.47;;;27.33;;
59788;SDS011;47353;51.614;5.530;2023-02-20T07:22:52;50.35;;;24.02;;
59788;SDS011;47353;51.614;5.530;2023-02-20T07:25:21;48.13;;;23.85;;
59788;SDS011;47353;51.614;5.530;2023-02-20T07:27:46;42.33;;;24.10;;
59788;SDS011;47353;51.614;5.530;2023-02-20T07:30:11;51.63;;;25.15;;
59788;SDS011;47353;51.614;5.530;2023-02-20T07:32:37;42.42;;;22.95;;
59788;SDS011;47353;51.614;5.530;2023-02-20T07:35:02;48.17;;;24.20;;
59788;SDS011;47353;51.614;5.530;2023-02-20T07:37:28;41.38;;;21.42;;
59788;SDS011;47353;51.614;5.530;2023-02-20T07:39:53;41.63;;;22.52;;
59788;SDS011;47353;51.614;5.530;2023-02-20T07:42:19;48.85;;;25.40;;
59788;SDS011;47353;51.614;5.530;2023-02-20T07:44:44;44.40;;;22.33;;
59788;SDS011;47353;51.614;5.530;2023-02-20T07:47:13;45.00;;;21.25;;
59788;SDS011;47353;51.614;5.530;2023-02-20T07:49:39;50.00;;;23.80;;
59788;SDS011;47353;51.614;5.530;2023-02-20T07:52:04;46.75;;;24.00;;
59788;SDS011;47353;51.614;5.530;2023-02-20T07:54:30;47.28;;;23.88;;
59788;SDS011;47353;51.614;5.530;2023-02-20T07:56:55;46.92;;;24.23;;
59788;SDS011;47353;51.614;5.530;2023-02-20T07:59:21;47.53;;;25.02;;
59788;SDS011;47353;51.614;5.530;2023-02-20T08:01:47;46.63;;;24.10;;
59788;SDS011;47353;51.614;5.530;2023-02-20T08:04:12;47.40;;;25.73;;
59788;SDS011;47353;51.614;5.530;2023-02-20T08:06:37;53.47;;;25.45;;
59788;SDS011;47353;51.614;5.530;2023-02-20T08:09:03;40.38;;;21.48;;
59788;SDS011;47353;51.614;5.530;2023-02-20T08:11:31;47.53;;;24.27;;
59788;SDS011;47353;51.614;5.530;2023-02-20T08:14:00;45.05;;;23.00;;
59788;SDS011;47353;51.614;5.530;2023-02-20T08:16:27;47.60;;;25.10;;
59788;SDS011;47353;51.614;5.530;2023-02-20T08:18:53;47.13;;;23.27;;
59788;SDS011;47353;51.614;5.530;2023-02-20T08:21:19;44.55;;;22.95;;
59788;SDS011;47353;51.614;5.530;2023-02-20T08:23:45;43.80;;;22.33;;
59788;SDS011;47353;51.614;5.530;2023-02-20T08:26:11;44.28;;;23.65;;
59788;SDS011;47353;51.614;5.530;2023-02-20T08:28:37;48.28;;;24.35;;
59788;SDS011;47353;51.614;5.530;2023-02-20T08:31:02;44.85;;;23.17;;
59788;SDS011;47353;51.614;5.530;2023-02-20T08:33:28;40.72;;;22.08;;
59788;SDS011;47353;51.614;5.530;2023-02-20T08:35:53;47.15;;;22.45;;
59788;SDS011;47353;51.614;5.530;2023-02-20T08:38:39;43.33;;;22.10;;
59788;SDS011;47353;51.614;5.530;2023-02-20T08:43:31;42.03;;;21.88;;
59788;SDS011;47353;51.614;5.530;2023-02-20T08:45:58;42.42;;;23.00;;
59788;SDS011;47353;51.614;5.530;2023-02-20T08:48:23;44.80;;;23.42;;
59788;SDS011;47353;51.614;5.530;2023-02-20T08:50:49;41.00;;;22.48;;
59788;SDS011;47353;51.614;5.530;2023-02-20T08:53:15;42.25;;;23.85;;
59788;SDS011;47353;51.614;5.530;2023-02-20T08:55:40;40.85;;;22.08;;
59788;SDS011;47353;51.614;5.530;2023-02-20T08:58:06;45.72;;;24.15;;
59788;SDS011;47353;51.614;5.530;2023-02-20T09:00:31;43.28;;;22.42;;
59788;SDS011;47353;51.614;5.530;2023-02-20T09:02:57;41.75;;;23.98;;
59788;SDS011;47353;51.614;5.530;2023-02-20T09:05:24;42.90;;;23.73;;
59788;SDS011;47353;51.614;5.530;2023-02-20T09:07:50;40.67;;;22.50;;
59788;SDS011;47353;51.614;5.530;2023-02-20T09:10:19;49.38;;;24.50;;
59788;SDS011;47353;51.614;5.530;2023-02-20T09:12:45;43.67;;;24.17;;
59788;SDS011;47353;51.614;5.530;2023-02-20T09:15:11;40.67;;;22.70;;
59788;SDS011;47353;51.614;5.530;2023-02-20T09:17:37;47.55;;;24.85;;
59788;SDS011;47353;51.614;5.530;2023-02-20T09:20:03;43.05;;;24.73;;
59788;SDS011;47353;51.614;5.530;2023-02-20T09:22:33;45.92;;;24.30;;
59788;SDS011;47353;51.614;5.530;2023-02-20T09:24:59;41.38;;;25.38;;
59788;SDS011;47353;51.614;5.530;2023-02-20T09:27:25;41.17;;;21.83;;
59788;SDS011;47353;51.614;5.530;2023-02-20T09:29:50;46.50;;;24.92;;
59788;SDS011;47353;51.614;5.530;2023-02-20T09:32:16;40.53;;;22.55;;
59788;SDS011;47353;51.614;5.530;2023-02-20T09:34:41;38.70;;;23.52;;
59788;SDS011;47353;51.614;5.530;2023-02-20T09:37:08;40.58;;;23.30;;
59788;SDS011;47353;51.614;5.530;2023-02-20T09:39:33;44.35;;;24.63;;
59788;SDS011;47353;51.614;5.530;2023-02-20T09:50:30;45.88;;;26.02;;
59788;SDS011;47353;51.614;5.530;2023-02-20T09:53:04;44.00;;;26.15;;
59788;SDS011;47353;51.614;5.530;2023-02-20T09:55:39;43.75;;;24.08;;
59788;SDS011;47353;51.614;5.530;2023-02-20T09:58:10;42.03;;;24.85;;
59788;SDS011;47353;51.614;5.530;2023-02-20T10:00:49;44.22;;;25.23;;
59788;SDS011;47353;51.614;5.530;2023-02-20T10:05:54;48.97;;;26.25;;
59788;SDS011;47353;51.614;5.530;2023-02-20T10:08:21;44.00;;;24.10;;
59788;SDS011;47353;51.614;5.530;2023-02-20T10:10:48;45.72;;;25.90;;
59788;SDS011;47353;51.614;5.530;2023-02-20T10:13:34;52.25;;;27.90;;
59788;SDS011;47353;51.614;5.530;2023-02-20T10:16:31;52.13;;;26.85;;
59788;SDS011;47353;51.614;5.530;2023-02-20T10:29:54;47.85;;;26.13;;
59788;SDS011;47353;51.614;5.530;2023-02-20T10:32:22;50.65;;;28.27;;
59788;SDS011;47353;51.614;5.530;2023-02-20T10:34:56;55.42;;;27.83;;
59788;SDS011;47353;51.614;5.530;2023-02-20T10:37:27;56.17;;;28.52;;
59788;SDS011;47353;51.614;5.530;2023-02-20T10:40:04;48.50;;;26.08;;
59788;SDS011;47353;51.614;5.530;2023-02-20T10:42:32;52.28;;;26.88;;
59788;SDS011;47353;51.614;5.530;2023-02-20T10:47:47;54.75;;;28.58;;
59788;SDS011;47353;51.614;5.530;2023-02-20T10:52:57;53.78;;;26.50;;
59788;SDS011;47353;51.614;5.530;2023-02-20T10:58:09;58.30;;;28.55;;
59788;SDS011;47353;51.614;5.530;2023-02-20T11:00:45;52.25;;;29.40;;
59788;SDS011;47353;51.614;5.530;2023-02-20T11:06:29;53.60;;;30.05;;
59788;SDS011;47353;51.614;5.530;2023-02-20T11:09:00;56.67;;;29.65;;
59788;SDS011;47353;51.614;5.530;2023-02-20T11:13:56;53.72;;;27.00;;
59788;SDS011;47353;51.614;5.530;2023-02-20T11:16:25;50.33;;;27.60;;
59788;SDS011;47353;51.614;5.530;2023-02-20T11:19:06;51.97;;;26.98;;
59788;SDS011;47353;51.614;5.530;2023-02-20T11:21:41;55.05;;;28.63;;
59788;SDS011;47353;51.614;5.530;2023-02-20T11:24:17;59.53;;;28.15;;
59788;SDS011;47353;51.614;5.530;2023-02-20T11:26:46;49.53;;;26.98;;
59788;SDS011;47353;51.614;5.530;2023-02-20T11:29:17;53.15;;;28.40;;
59788;SDS011;47353;51.614;5.530;2023-02-20T11:31:45;49.80;;;28.27;;
59788;SDS011;47353;51.614;5.530;2023-02-20T11:34:18;52.78;;;27.10;;
59788;SDS011;47353;51.614;5.530;2023-02-20T11:36:47;53.15;;;25.58;;
59788;SDS011;47353;51.614;5.530;2023-02-20T11:39:18;45.80;;;25.02;;
59788;SDS011;47353;51.614;5.530;2023-02-20T11:41:47;34.75;;;19.33;;
59788;SDS011;47353;51.614;5.530;2023-02-20T11:44:18;43.42;;;22.58;;
59788;SDS011;47353;51.614;5.530;2023-02-20T11:46:46;47.35;;;23.63;;
59788;SDS011;47353;51.614;5.530;2023-02-20T11:49:32;44.25;;;24.15;;
59788;SDS011;47353;51.614;5.530;2023-02-20T11:55:17;46.60;;;23.35;;
59788;SDS011;47353;51.614;5.530;2023-02-20T11:57:45;45.77;;;23.67;;
59788;SDS011;47353;51.614;5.530;2023-02-20T12:00:19;44.25;;;23.35;;
59788;SDS011;47353;51.614;5.530;2023-02-20T12:02:54;41.53;;;21.20;;
59788;SDS011;47353;51.614;5.530;2023-02-20T12:05:37;42.15;;;23.85;;
59788;SDS011;47353;51.614;5.530;2023-02-20T12:11:24;42.72;;;20.88;;
59788;SDS011;47353;51.614;5.530;2023-02-20T12:13:52;40.30;;;21.52;;
59788;SDS011;47353;51.614;5.530;2023-02-20T12:16:27;39.95;;;20.88;;
59788;SDS011;47353;51.614;5.530;2023-02-20T12:22:02;40.25;;;20.33;;
59788;SDS011;47353;51.614;5.530;2023-02-20T12:35:28;46.92;;;22.20;;
59788;SDS011;47353;51.614;5.530;2023-02-20T12:40:36;47.78;;;22.58;;
59788;SDS011;47353;51.614;5.530;2023-02-20T12:43:21;40.05;;;21.35;;
59788;SDS011;47353;51.614;5.530;2023-02-20T12:46:08;41.78;;;21.70;;
59788;SDS011;47353;51.614;5.530;2023-02-20T12:51:39;39.30;;;22.35;;
59788;SDS011;47353;51.614;5.530;2023-02-20T13:04:59;41.80;;;22.40;;
59788;SDS011;47353;51.614;5.530;2023-02-20T13:07:34;33.75;;;18.73;;
59788;SDS011;47353;51.614;5.530;2023-02-20T13:12:34;38.35;;;22.95;;
59788;SDS011;47353;51.614;5.530;2023-02-20T13:20:10;36.40;;;21.05;;
59788;SDS011;47353;51.614;5.530;2023-02-20T13:22:41;31.10;;;18.85;;
59788;SDS011;47353;51.614;5.530;2023-02-20T13:30:36;26.58;;;17.08;;
59788;SDS011;47353;51.614;5.530;2023-02-20T13:33:12;28.17;;;15.50;;
59788;SDS011;47353;51.614;5.530;2023-02-20T13:35:46;30.98;;;16.58;;
59788;SDS011;47353;51.614;5.530;2023-02-20T13:38:17;24.70;;;16.25;;
59788;SDS011;47353;51.614;5.530;2023-02-20T13:53:49;25.10;;;14.57;;
59788;SDS011;47353;51.614;5.530;2023-02-20T13:56:15;23.02;;;14.00;;
59788;SDS011;47353;51.614;5.530;2023-02-20T13:58:41;21.58;;;13.80;;
59788;SDS011;47353;51.614;5.530;2023-02-20T14:01:08;24.13;;;13.82;;
59788;SDS011;47353;51.614;5.530;2023-02-20T14:03:33;26.75;;;13.40;;
59788;SDS011;47353;51.614;5.530;2023-02-20T14:06:09;20.20;;;12.60;;
59788;SDS011;47353;51.614;5.530;2023-02-20T14:08:38;18.38;;;13.23;;
59788;SDS011;47353;51.614;5.530;2023-02-20T14:11:13;22.23;;;12.45;;
59788;SDS011;47353;51.614;5.530;2023-02-20T14:13:40;21.15;;;13.30;;
59788;SDS011;47353;51.614;5.530;2023-02-20T14:18:57;25.63;;;15.85;;
59788;SDS011;47353;51.614;5.530;2023-02-20T14:21:24;30.25;;;17.90;;
59788;SDS011;47353;51.614;5.530;2023-02-20T14:23:51;29.80;;;18.27;;
59788;SDS011;47353;51.614;5.530;2023-02-20T14:26:18;27.42;;;17.58;;
59788;SDS011;47353;51.614;5.530;2023-02-20T14:28:47;29.02;;;17.98;;
59788;SDS011;47353;51.614;5.530;2023-02-20T14:33:44;26.63;;;13.13;;
59788;SDS011;47353;51.614;5.530;2023-02-20T14:36:52;26.20;;;14.27;;
59788;SDS011;47353;51.614;5.530;2023-02-20T14:41:54;22.23;;;13.95;;
59788;SDS011;47353;51.614;5.530;2023-02-20T14:44:22;26.67;;;15.52;;
59788;SDS011;47353;51.614;5.530;2023-02-20T14:46:49;22.98;;;15.52;;
59788;SDS011;47353;51.614;5.530;2023-02-20T14:49:25;23.65;;;16.20;;
59788;SDS011;47353;51.614;5.530;2023-02-20T14:52:03;29.77;;;16.08;;
59788;SDS011;47353;51.614;5.530;2023-02-20T14:54:38;29.95;;;17.10;;
59788;SDS011;47353;51.614;5.530;2023-02-20T14:57:05;22.17;;;14.32;;
59788;SDS011;47353;51.614;5.530;2023-02-20T14:59:37;22.90;;;15.00;;
59788;SDS011;47353;51.614;5.530;2023-02-20T15:05:04;22.08;;;14.90;;
59788;SDS011;47353;51.614;5.530;2023-02-20T15:07:31;20.73;;;14.77;;
59788;SDS011;47353;51.614;5.530;2023-02-20T15:09:58;22.83;;;14.35;;
59788;SDS011;47353;51.614;5.530;2023-02-20T15:12:33;22.40;;;14.10;;
59788;SDS011;47353;51.614;5.530;2023-02-20T15:20:17;21.02;;;12.93;;
59788;SDS011;47353;51.614;5.530;2023-02-20T15:22:44;21.00;;;12.43;;
59788;SDS011;47353;51.614;5.530;2023-02-20T15:25:10;21.92;;;13.18;;
59788;SDS011;47353;51.614;5.530;2023-02-20T15:27:39;20.55;;;12.52;;
59788;SDS011;47353;51.614;5.530;2023-02-20T15:32:40;19.55;;;12.48;;
59788;SDS011;47353;51.614;5.530;2023-02-20T15:35:14;20.55;;;11.73;;
59788;SDS011;47353;51.614;5.530;2023-02-20T15:37:41;19.33;;;12.45;;
59788;SDS011;47353;51.614;5.530;2023-02-20T15:40:24;22.67;;;13.43;;
59788;SDS011;47353;51.614;5.530;2023-02-20T15:42:52;22.13;;;13.50;;
59788;SDS011;47353;51.614;5.530;2023-02-20T15:45:30;21.55;;;12.35;;
59788;SDS011;47353;51.614;5.530;2023-02-20T15:47:56;21.00;;;12.55;;
59788;SDS011;47353;51.614;5.530;2023-02-20T15:50:22;26.30;;;13.25;;
59788;SDS011;47353;51.614;5.530;2023-02-20T15:52:51;24.33;;;14.23;;
59788;SDS011;47353;51.614;5.530;2023-02-20T15:55:17;25.75;;;13.23;;
59788;SDS011;47353;51.614;5.530;2023-02-20T15:57:45;23.08;;;14.30;;
59788;SDS011;47353;51.614;5.530;2023-02-20T16:00:19;21.10;;;13.90;;
59788;SDS011;47353;51.614;5.530;2023-02-20T16:02:47;24.20;;;14.65;;
59788;SDS011;47353;51.614;5.530;2023-02-20T16:05:13;25.55;;;15.00;;
59788;SDS011;47353;51.614;5.530;2023-02-20T16:07:39;25.42;;;15.82;;
59788;SDS011;47353;51.614;5.530;2023-02-20T16:10:04;23.95;;;15.80;;
59788;SDS011;47353;51.614;5.530;2023-02-20T16:12:30;28.95;;;17.90;;
59788;SDS011;47353;51.614;5.530;2023-02-20T16:14:57;29.75;;;18.73;;
59788;SDS011;47353;51.614;5.530;2023-02-20T16:17:24;32.50;;;19.70;;
59788;SDS011;47353;51.614;5.530;2023-02-20T16:19:52;33.83;;;20.45;;
59788;SDS011;47353;51.614;5.530;2023-02-20T16:22:19;33.83;;;19.55;;
59788;SDS011;47353;51.614;5.530;2023-02-20T16:24:44;31.85;;;18.45;;
59788;SDS011;47353;51.614;5.530;2023-02-20T16:27:16;28.05;;;17.95;;
59788;SDS011;47353;51.614;5.530;2023-02-20T16:29:46;26.98;;;18.38;;
59788;SDS011;47353;51.614;5.530;2023-02-20T16:32:14;30.42;;;16.75;;
59788;SDS011;47353;51.614;5.530;2023-02-20T16:34:51;27.05;;;17.02;;
59788;SDS011;47353;51.614;5.530;2023-02-20T16:37:18;30.63;;;16.13;;
59788;SDS011;47353;51.614;5.530;2023-02-20T16:39:44;26.50;;;15.65;;
59788;SDS011;47353;51.614;5.530;2023-02-20T16:42:14;27.60;;;15.23;;
59788;SDS011;47353;51.614;5.530;2023-02-20T16:44:44;30.67;;;16.33;;
59788;SDS011;47353;51.614;5.530;2023-02-20T16:47:11;27.83;;;16.40;;
59788;SDS011;47353;51.614;5.530;2023-02-20T16:49:41;23.88;;;16.38;;
59788;SDS011;47353;51.614;5.530;2023-02-20T16:52:11;25.67;;;16.73;;
59788;SDS011;47353;51.614;5.530;2023-02-20T16:54:42;29.83;;;17.20;;
59788;SDS011;47353;51.614;5.530;2023-02-20T16:57:09;27.65;;;16.88;;
59788;SDS011;47353;51.614;5.530;2023-02-20T16:59:34;29.23;;;18.13;;